Back to Top

Language: 

My Weather Underground Personal Weather Station Historical Data with Graphs...

Delerius Weather Station Historical Data
Daily Summary for February 8, 2018 Units:  Metric    English   Both
« Previous Day
Next Day »
Daily Weekly Monthly Yearly Custom
  High: Low: Average:
Temperature: 7.7 °C 0.8 °C 5.3 °C
Dew Point: 5.9 °C -1.2 °C 3.4 °C
Humidity: 93 % 83 % 88 %
Wind Speed: 30.6 km/h 0 km/h 12.9 km/h
Wind Gust: 48.3 km/h - -
Wind:- - SSW
Pressure: 1018.2 hPa 1003.6 hPa -
Precipitation: 3.81 mm    
Historical Graphs
 
 
Tabular Data for February 8, 2018
Time Temperature Dew Point Pressure Wind Wind Speed Wind Gust Humidity Rainfall Rate (Hourly) solar Conditions
00:03 0.8 °C -1.1 °C 1018.2 hPa Calm     87 % 0 mm 0 W/m2
00:08 0.9 °C -1.2 °C 1017.8 hPa Calm     86 % 0 mm 0 W/m2
00:13 1 °C -1.1 °C 1017.8 hPa Calm     86 % 0 mm 0 W/m2
00:18 1 °C -1.1 °C 1017.8 hPa Calm     86 % 0 mm 0 W/m2
00:23 1.1 °C -1 °C 1017.8 hPa Calm   1.6 km/h 86 % 0 mm 0 W/m2
00:28 1.1 °C -1 °C 1017.8 hPa Calm     86 % 0 mm 0 W/m2
00:33 1 °C -1.1 °C 1017.8 hPa Calm     86 % 0 mm 0 W/m2
00:38 1 °C -1.1 °C 1017.8 hPa Calm     86 % 0 mm 0 W/m2
00:43 1 °C -1.1 °C 1017.8 hPa Calm     86 % 0 mm 0 W/m2
00:48 1 °C -1.1 °C 1017.8 hPa Calm     86 % 0 mm 0 W/m2
00:53 1 °C -1.1 °C 1017.8 hPa Calm     86 % 0 mm 0 W/m2
00:58 1 °C -1.1 °C 1017.8 hPa Calm   1.6 km/h 86 % 0 mm 0 W/m2
01:03 1.1 °C -0.8 °C 1017.5 hPa Calm   1.6 km/h 87 % 0 mm 0 W/m2
01:08 1.1 °C -0.8 °C 1017.5 hPa Calm   1.6 km/h 87 % 0 mm 0 W/m2
01:13 1.1 °C -1 °C 1017.5 hPa Calm     86 % 0 mm 0 W/m2
01:19 1.1 °C -1 °C 1017.5 hPa Calm     86 % 0 mm 0 W/m2
01:24 1.1 °C -1 °C 1017.5 hPa Calm     86 % 0 mm 0 W/m2
01:29 1.1 °C -1 °C 1017.5 hPa Calm   1.6 km/h 86 % 0 mm 0 W/m2
01:34 1.1 °C -1 °C 1017.2 hPa Calm     86 % 0 mm 0 W/m2
01:39 1.1 °C -0.8 °C 1017.2 hPa Calm     87 % 0 mm 0 W/m2
01:44 1.1 °C -0.8 °C 1017.2 hPa Calm     87 % 0 mm 0 W/m2
01:49 1.1 °C -0.8 °C 1017.2 hPa Calm   3.2 km/h 87 % 0 mm 0 W/m2
01:54 1.1 °C -0.8 °C 1016.8 hPa Calm     87 % 0 mm 0 W/m2
01:59 1.1 °C -0.8 °C 1016.8 hPa Calm     87 % 0 mm 0 W/m2
02:04 1.1 °C -0.8 °C 1016.8 hPa Calm     87 % 0 mm 0 W/m2
02:09 1.1 °C -0.8 °C 1016.5 hPa South 1.6 km/h 3.2 km/h 87 % 0 mm 0 W/m2
02:14 1.1 °C -0.8 °C 1016.5 hPa SSE 1.6 km/h 8 km/h 87 % 0 mm 0 W/m2
02:19 1.2 °C -0.7 °C 1016.5 hPa SE 4.8 km/h 9.7 km/h 87 % 0 mm 0 W/m2
02:24 1.2 °C -0.7 °C 1016.5 hPa Calm     87 % 0 mm 0 W/m2
02:29 1.2 °C -0.7 °C 1016.1 hPa SE 3.2 km/h 6.4 km/h 87 % 0 mm 0 W/m2
02:34 1.2 °C -0.7 °C 1016.1 hPa Calm   3.2 km/h 87 % 0 mm 0 W/m2
02:39 1.2 °C -0.7 °C 1016.1 hPa Calm     87 % 0 mm 0 W/m2
02:44 1.2 °C -0.7 °C 1016.1 hPa NE 1.6 km/h 6.4 km/h 87 % 0 mm 0 W/m2
02:49 1.3 °C -0.6 °C 1016.1 hPa Calm     87 % 0 mm 0 W/m2
02:54 1.3 °C -0.6 °C 1016.1 hPa Calm     87 % 0 mm 0 W/m2
02:59 1.3 °C -0.8 °C 1015.8 hPa Calm     86 % 0 mm 0 W/m2
03:04 1.3 °C -0.8 °C 1015.8 hPa Calm     86 % 0 mm 0 W/m2
03:09 1.4 °C -0.6 °C 1015.8 hPa SSW 3.2 km/h 9.7 km/h 87 % 0 mm 0 W/m2
03:14 1.6 °C -0.3 °C 1015.8 hPa SW 3.2 km/h 9.7 km/h 87 % 0 mm 0 W/m2
03:19 1.7 °C -0.2 °C 1015.5 hPa West 1.6 km/h 6.4 km/h 87 % 0 mm 0 W/m2
03:24 1.8 °C -0.1 °C 1015.5 hPa SSW 4.8 km/h 12.9 km/h 87 % 0 mm 0 W/m2
03:29 2.1 °C 0.2 °C 1015.5 hPa SSW 9.7 km/h 14.5 km/h 87 % 0 mm 0 W/m2
03:34 2.3 °C 0.3 °C 1015.5 hPa SW 8 km/h 12.9 km/h 87 % 0 mm 0 W/m2
03:39 2.6 °C 0.5 °C 1015.5 hPa SSW 6.4 km/h 11.3 km/h 86 % 0 mm 0 W/m2
03:44 2.6 °C 0.5 °C 1015.5 hPa South 6.4 km/h 9.7 km/h 86 % 0 mm 0 W/m2
03:49 2.7 °C 0.4 °C 1015.5 hPa SSW 4.8 km/h 8 km/h 85 % 0 mm 0 W/m2
03:54 2.7 °C 0.4 °C 1015.5 hPa South 3.2 km/h 6.4 km/h 85 % 0 mm 0 W/m2
03:59 2.7 °C 0.4 °C 1015.5 hPa South 3.2 km/h 8 km/h 85 % 0 mm 0 W/m2
04:04 2.7 °C 0.4 °C 1015.5 hPa Calm   4.8 km/h 85 % 0 mm 0 W/m2
04:09 2.7 °C 0.4 °C 1015.5 hPa Calm   1.6 km/h 85 % 0 mm 0 W/m2
04:14 2.7 °C 0.4 °C 1015.5 hPa South 1.6 km/h 8 km/h 85 % 0 mm 0 W/m2
04:19 2.7 °C 0.4 °C 1015.1 hPa SSW 6.4 km/h 11.3 km/h 85 % 0 mm 0 W/m2
04:24 2.8 °C 0.5 °C 1015.1 hPa SSW 4.8 km/h 9.7 km/h 85 % 0 mm 0 W/m2
04:29 2.9 °C 0.6 °C 1015.1 hPa South 6.4 km/h 12.9 km/h 85 % 0 mm 0 W/m2
04:34 2.9 °C 0.6 °C 1015.1 hPa South 8 km/h 12.9 km/h 85 % 0 mm 0 W/m2
04:39 3.1 °C 0.8 °C 1015.1 hPa SSW 3.2 km/h 8 km/h 85 % 0 mm 0 W/m2
04:44 3.1 °C 0.8 °C 1015.1 hPa South 1.6 km/h 3.2 km/h 85 % 0 mm 0 W/m2
04:49 3.1 °C 0.8 °C 1015.5 hPa South 3.2 km/h 11.3 km/h 85 % 0 mm 0 W/m2
04:54 3.1 °C 0.8 °C 1015.1 hPa SSW 4.8 km/h 12.9 km/h 85 % 0 mm 0 W/m2
04:59 3 °C 0.7 °C 1015.1 hPa South 8 km/h 12.9 km/h 85 % 0 mm 0 W/m2
05:04 3 °C 0.7 °C 1015.1 hPa South 6.4 km/h 9.7 km/h 85 % 0 mm 0 W/m2
05:09 3 °C 0.9 °C 1015.1 hPa South 8 km/h 14.5 km/h 86 % 0 mm 0 W/m2
05:14 3.1 °C 1 °C 1015.1 hPa South 8 km/h 11.3 km/h 86 % 0 mm 0 W/m2
05:19 3.2 °C 1.1 °C 1015.1 hPa South 8 km/h 12.9 km/h 86 % 0 mm 0 W/m2
05:24 3.2 °C 1.1 °C 1015.1 hPa SSE 4.8 km/h 8 km/h 86 % 0 mm 0 W/m2
05:29 3.3 °C 1.2 °C 1015.1 hPa SSE 8 km/h 16.1 km/h 86 % 0 mm 0 W/m2
05:34 3.3 °C 1.2 °C 1014.8 hPa SSE 3.2 km/h 11.3 km/h 86 % 0 mm 0 W/m2
05:39 3.2 °C 1.1 °C 1014.8 hPa SSE 8 km/h 12.9 km/h 86 % 0 mm 0 W/m2
05:44 3.3 °C 1.2 °C 1014.8 hPa SSE 6.4 km/h 17.7 km/h 86 % 0 mm 0 W/m2
05:49 3.3 °C 1.3 °C 1014.8 hPa SSE 12.9 km/h 16.1 km/h 87 % 0 mm 0 W/m2
05:54 3.3 °C 1.3 °C 1014.8 hPa SSE 11.3 km/h 14.5 km/h 87 % 0 mm 0 W/m2
05:59 3.4 °C 1.4 °C 1014.8 hPa SSE 11.3 km/h 16.1 km/h 87 % 0 mm 0 W/m2
06:04 3.5 °C 1.6 °C 1014.8 hPa SSE 9.7 km/h 17.7 km/h 87 % 0 mm 0 W/m2
06:09 3.5 °C 1.6 °C 1014.4 hPa South 8 km/h 11.3 km/h 87 % 0 mm 0 W/m2
06:14 3.4 °C 1.4 °C 1014.4 hPa SE 8 km/h 12.9 km/h 87 % 0 mm 0 W/m2
06:19 3.4 °C 1.4 °C 1014.4 hPa SSE 6.4 km/h 11.3 km/h 87 % 0 mm 0 W/m2
06:24 3.3 °C 1.3 °C 1014.4 hPa SSE 3.2 km/h 8 km/h 87 % 0 mm 0 W/m2
06:29 3.3 °C 1.5 °C 1014.1 hPa SSE 3.2 km/h 6.4 km/h 88 % 0 mm 0 W/m2
06:34 3.2 °C 1.4 °C 1014.1 hPa SSE 3.2 km/h 8 km/h 88 % 0 mm 0 W/m2
06:40 3.2 °C 1.4 °C 1014.1 hPa SE 4.8 km/h 9.7 km/h 88 % 0 mm 0 W/m2
06:45 3.1 °C 1.3 °C 1014.1 hPa Calm     88 % 0 mm 0 W/m2
06:50 3.2 °C 1.6 °C 1014.1 hPa South 6.4 km/h 11.3 km/h 89 % 0 mm 0 W/m2
06:55 3.2 °C 1.6 °C 1013.8 hPa South 1.6 km/h 6.4 km/h 89 % 0 mm 0 W/m2
07:00 3.3 °C 1.7 °C 1013.8 hPa SSE 1.6 km/h 8 km/h 89 % 0 mm 0 W/m2
07:05 3.3 °C 1.7 °C 1013.8 hPa South 4.8 km/h 11.3 km/h 89 % 0 mm 0 W/m2
07:10 3.3 °C 1.7 °C 1013.8 hPa Calm   6.4 km/h 89 % 0 mm 0 W/m2
07:15 3.3 °C 1.7 °C 1013.8 hPa Calm   1.6 km/h 89 % 0 mm 0 W/m2
07:20 3.3 °C 1.7 °C 1013.8 hPa South 1.6 km/h 8 km/h 89 % 0 mm 0 W/m2
07:25 3.3 °C 1.7 °C 1013.8 hPa South 4.8 km/h 8 km/h 89 % 0 mm 0 W/m2
07:30 3.3 °C 1.7 °C 1013.8 hPa SSW 3.2 km/h 8 km/h 89 % 0 mm 0 W/m2
07:35 3.3 °C 1.7 °C 1013.8 hPa SSW 3.2 km/h 8 km/h 89 % 0 mm 0 W/m2
07:40 3.3 °C 1.8 °C 1013.8 hPa SW 4.8 km/h 8 km/h 90 % 0 mm 5 W/m2
07:45 3.3 °C 1.8 °C 1013.8 hPa SSW 8 km/h 11.3 km/h 90 % 0 mm 7 W/m2
07:50 3.3 °C 1.8 °C 1013.8 hPa SW 8 km/h 11.3 km/h 90 % 0 mm 9 W/m2
07:55 3.4 °C 1.9 °C 1013.8 hPa SSW 6.4 km/h 14.5 km/h 90 % 0 mm 11 W/m2
08:00 3.6 °C 2.3 °C 1013.8 hPa SW 8 km/h 14.5 km/h 91 % 0 mm 14 W/m2
08:05 3.7 °C 2.2 °C 1013.8 hPa SSW 8 km/h 12.9 km/h 90 % 0 mm 14 W/m2
08:10 3.8 °C 2.3 °C 1013.8 hPa SSW 3.2 km/h 9.7 km/h 90 % 0 mm 16 W/m2
08:15 3.8 °C 2.2 °C 1013.8 hPa SSE 4.8 km/h 11.3 km/h 89 % 0 mm 18 W/m2
08:20 3.7 °C 2.1 °C 1013.8 hPa SSE 6.4 km/h 9.7 km/h 89 % 0 mm 19 W/m2
08:25 3.5 °C 1.8 °C 1013.4 hPa SE 9.7 km/h 12.9 km/h 89 % 0 mm 23 W/m2
08:30 3.4 °C 1.8 °C 1013.4 hPa SE 6.4 km/h 9.7 km/h 89 % 0 mm 26 W/m2
08:35 3.3 °C 1.7 °C 1013.4 hPa Calm   1.6 km/h 89 % 0 mm 30 W/m2
08:40 3.3 °C 1.8 °C 1013.4 hPa Calm     90 % 0 mm 35 W/m2
08:45 3.2 °C 1.7 °C 1013.4 hPa Calm     90 % 0 mm 56 W/m2
08:50 3.3 °C 1.8 °C 1013.4 hPa SSW 8 km/h 11.3 km/h 90 % 0 mm 69 W/m2
08:55 3.7 °C 2.5 °C 1013.4 hPa SSW 6.4 km/h 12.9 km/h 92 % 0 mm 72 W/m2
09:00 4.1 °C 2.9 °C 1013.4 hPa SSW 11.3 km/h 16.1 km/h 92 % 0 mm 79 W/m2
09:05 4.4 °C 3.1 °C 1013.4 hPa SSW 6.4 km/h 11.3 km/h 91 % 0 mm 111 W/m2
09:10 4.6 °C 3.3 °C 1013.4 hPa SSW 9.7 km/h 14.5 km/h 91 % 0 mm 84 W/m2
09:15 4.6 °C 3.1 °C 1013.4 hPa South 8 km/h 14.5 km/h 90 % 0 mm 98 W/m2
09:20 4.6 °C 3.1 °C 1013.4 hPa SSW 4.8 km/h 9.7 km/h 90 % 0 mm 109 W/m2
09:25 4.7 °C 3.2 °C 1013.4 hPa SSW 3.2 km/h 8 km/h 90 % 0 mm 111 W/m2
09:30 4.8 °C 3.3 °C 1013.4 hPa SSW 4.8 km/h 9.7 km/h 90 % 0 mm 118 W/m2
09:35 5 °C 3.5 °C 1013.4 hPa South 6.4 km/h 11.3 km/h 90 % 0 mm 132 W/m2
09:40 5.3 °C 3.8 °C 1013.4 hPa South 6.4 km/h 12.9 km/h 90 % 0 mm 151 W/m2
09:45 5.5 °C 4 °C 1013.1 hPa SSE 6.4 km/h 12.9 km/h 90 % 0 mm 172 W/m2
09:50 5.7 °C 4.2 °C 1013.1 hPa SSE 8 km/h 12.9 km/h 90 % 0 mm 155 W/m2
09:55 6 °C 4.3 °C 1013.1 hPa SSE 6.4 km/h 9.7 km/h 89 % 0 mm 123 W/m2
10:00 6.2 °C 4.5 °C 1013.1 hPa ESE 8 km/h 11.3 km/h 89 % 0 mm 98 W/m2
10:05 6.3 °C 4.4 °C 1013.1 hPa SSE 1.6 km/h 6.4 km/h 88 % 0 mm 88 W/m2
10:10 6.4 °C 4.6 °C 1013.1 hPa SSW 8 km/h 17.7 km/h 88 % 0 mm 90 W/m2
10:15 6.4 °C 4.4 °C 1013.1 hPa SW 8 km/h 19.3 km/h 87 % 0 mm 97 W/m2
10:20 6.5 °C 4.5 °C 1013.1 hPa SW 6.4 km/h 16.1 km/h 87 % 0 mm 111 W/m2
10:25 6.5 °C 4.5 °C 1012.8 hPa SW 11.3 km/h 20.9 km/h 87 % 0 mm 135 W/m2
10:30 6.5 °C 4.5 °C 1012.8 hPa SSW 6.4 km/h 11.3 km/h 87 % 0 mm 172 W/m2
10:35 6.6 °C 4.6 °C 1012.8 hPa SW 12.9 km/h 20.9 km/h 87 % 0 mm 206 W/m2
10:40 6.7 °C 4.7 °C 1012.8 hPa SW 4.8 km/h 11.3 km/h 87 % 0 mm 260 W/m2
10:45 6.8 °C 4.6 °C 1012.4 hPa WSW 12.9 km/h 25.7 km/h 86 % 0 mm 188 W/m2
10:50 6.9 °C 4.7 °C 1012.4 hPa WSW 6.4 km/h 14.5 km/h 86 % 0 mm 197 W/m2
10:55 7 °C 4.7 °C 1012.4 hPa SW 16.1 km/h 29 km/h 85 % 0 mm 276 W/m2
11:00 7.2 °C 4.8 °C 1012.4 hPa SW 12.9 km/h 20.9 km/h 85 % 0 mm 202 W/m2
11:05 7.2 °C 4.7 °C 1012.4 hPa WSW 16.1 km/h 32.2 km/h 84 % 0 mm 288 W/m2
11:11 7.3 °C 4.8 °C 1012.4 hPa SW 9.7 km/h 30.6 km/h 84 % 0 mm 264 W/m2
11:16 7.3 °C 4.8 °C 1012.4 hPa SW 9.7 km/h 17.7 km/h 84 % 0 mm 329 W/m2
11:21 7.4 °C 4.9 °C 1012.4 hPa SW 16.1 km/h 30.6 km/h 84 % 0 mm 327 W/m2
11:26 7.6 °C 5.1 °C 1012.1 hPa SW 16.1 km/h 32.2 km/h 84 % 0 mm 304 W/m2
11:31 7.6 °C 4.9 °C 1012.4 hPa SW 17.7 km/h 33.8 km/h 83 % 0 mm 308 W/m2
11:36 7.6 °C 4.9 °C 1012.1 hPa SW 14.5 km/h 32.2 km/h 83 % 0 mm 241 W/m2
11:41 7.7 °C 5 °C 1012.1 hPa WSW 16.1 km/h 22.5 km/h 83 % 0 mm 229 W/m2
11:46 7.7 °C 5 °C 1012.1 hPa SW 16.1 km/h 32.2 km/h 83 % 0 mm 251 W/m2
11:51 7.7 °C 5 °C 1012.1 hPa SW 14.5 km/h 24.1 km/h 83 % 0 mm 165 W/m2
11:56 7.7 °C 5 °C 1011.7 hPa WSW 11.3 km/h 20.9 km/h 83 % 0 mm 153 W/m2
12:01 7.6 °C 5.1 °C 1011.7 hPa SW 14.5 km/h 24.1 km/h 84 % 0 mm 171 W/m2
12:06 7.4 °C 4.9 °C 1011.7 hPa SW 24.1 km/h 35.4 km/h 84 % 0 mm 181 W/m2
12:11 7.3 °C 4.8 °C 1011.4 hPa SW 24.1 km/h 43.5 km/h 84 % 0 mm 206 W/m2
12:16 7.4 °C 4.9 °C 1011.4 hPa SW 22.5 km/h 35.4 km/h 84 % 0 mm 251 W/m2
12:21 7.6 °C 5.2 °C 1011.4 hPa SW 17.7 km/h 35.4 km/h 85 % 0 mm 260 W/m2
12:26 7.7 °C 5.2 °C 1011.4 hPa SW 25.7 km/h 38.6 km/h 84 % 0 mm 239 W/m2
12:31 7.7 °C 5.2 °C 1011.4 hPa WSW 24.1 km/h 35.4 km/h 84 % 0 mm 250 W/m2
12:36 7.7 °C 5.2 °C 1011.1 hPa SW 20.9 km/h 33.8 km/h 84 % 0 mm 199 W/m2
12:41 7.7 °C 5.2 °C 1011.1 hPa SW 24.1 km/h 35.4 km/h 84 % 0 mm 162 W/m2
12:46 7.6 °C 5.1 °C 1011.1 hPa SW 20.9 km/h 32.2 km/h 84 % 0 mm 158 W/m2
12:51 7.5 °C 4.9 °C 1011.1 hPa SW 20.9 km/h 37 km/h 84 % 0 mm 167 W/m2
12:56 7.4 °C 4.9 °C 1011.1 hPa SW 19.3 km/h 30.6 km/h 84 % 0 mm 163 W/m2
13:01 7.4 °C 4.9 °C 1011.1 hPa SW 19.3 km/h 33.8 km/h 84 % 0 mm 155 W/m2
13:06 7.4 °C 4.9 °C 1011.1 hPa SW 27.4 km/h 41.8 km/h 84 % 0 mm 158 W/m2
13:11 7.4 °C 4.9 °C 1010.7 hPa SW 19.3 km/h 30.6 km/h 84 % 0 mm 158 W/m2
13:16 7.4 °C 4.9 °C 1011.1 hPa SW 27.4 km/h 38.6 km/h 84 % 0 mm 155 W/m2
13:21 7.4 °C 5.1 °C 1010.7 hPa SW 16.1 km/h 29 km/h 85 % 0 mm 148 W/m2
13:26 7.4 °C 5.1 °C 1010.7 hPa SW 17.7 km/h 25.7 km/h 85 % 0 mm 148 W/m2
13:31 7.3 °C 4.8 °C 1010.7 hPa SW 25.7 km/h 37 km/h 84 % 0 mm 155 W/m2
13:36 7.2 °C 4.8 °C 1010.4 hPa SW 29 km/h 45.1 km/h 85 % 0 mm 162 W/m2
13:41 7.2 °C 4.8 °C 1010.4 hPa SW 20.9 km/h 33.8 km/h 85 % 0 mm 160 W/m2
13:46 7.2 °C 4.8 °C 1010.4 hPa SW 29 km/h 43.5 km/h 85 % 0 mm 160 W/m2
13:51 7.2 °C 4.8 °C 1010.4 hPa SW 24.1 km/h 37 km/h 85 % 0 mm 158 W/m2
13:56 7.3 °C 4.9 °C 1010.4 hPa SW 27.4 km/h 41.8 km/h 85 % 0 mm 162 W/m2
14:01 7.4 °C 5.1 °C 1010 hPa SW 27.4 km/h 43.5 km/h 85 % 0 mm 237 W/m2
14:06 7.4 °C 5.1 °C 1010 hPa SW 29 km/h 45.1 km/h 85 % 0 mm 158 W/m2
14:11 7.4 °C 5.1 °C 1010 hPa SSW 25.7 km/h 41.8 km/h 85 % 0 mm 153 W/m2
14:16 7.5 °C 5.2 °C 1010 hPa SSW 24.1 km/h 40.2 km/h 85 % 0 mm 248 W/m2
14:21 7.6 °C 5.1 °C 1010 hPa SW 30.6 km/h 45.1 km/h 84 % 0 mm 132 W/m2
14:26 7.5 °C 5.2 °C 1010 hPa SW 20.9 km/h 33.8 km/h 85 % 0 mm 116 W/m2
14:31 7.4 °C 5.1 °C 1009.7 hPa SW 24.1 km/h 33.8 km/h 85 % 0 mm 102 W/m2
14:36 7.4 °C 4.9 °C 1010 hPa SSW 25.7 km/h 38.6 km/h 84 % 0 mm 93 W/m2
14:41 7.4 °C 5.1 °C 1009.7 hPa SW 24.1 km/h 37 km/h 85 % 0 mm 65 W/m2
14:46 7.4 °C 5.1 °C 1009.7 hPa SSW 24.1 km/h 35.4 km/h 85 % 0 mm 56 W/m2
14:51 7.4 °C 5.1 °C 1009.7 hPa SSW 22.5 km/h 41.8 km/h 85 % 0 mm 44 W/m2
14:56 7.4 °C 5.1 °C 1009.7 hPa SSW 16.1 km/h 29 km/h 85 % 0 mm 37 W/m2
15:01 7.4 °C 5.1 °C 1009.7 hPa SSW 9.7 km/h 17.7 km/h 85 % 0 mm 35 W/m2
15:06 7.4 °C 5.1 °C 1009.7 hPa South 12.9 km/h 24.1 km/h 85 % 0 mm 33 W/m2
15:11 7.4 °C 5.1 °C 1009.7 hPa SSW 16.1 km/h 25.7 km/h 85 % 0 mm 40 W/m2
15:16 7.4 °C 5.1 °C 1009.4 hPa South 17.7 km/h 35.4 km/h 85 % 0 mm 56 W/m2
15:22 7.4 °C 5.1 °C 1009.4 hPa South 17.7 km/h 22.5 km/h 85 % 0 mm 111 W/m2
15:27 7.5 °C 5.2 °C 1009.4 hPa South 14.5 km/h 20.9 km/h 85 % 0 mm 54 W/m2
15:32 7.6 °C 5.2 °C 1009 hPa SSW 9.7 km/h 19.3 km/h 85 % 0 mm 49 W/m2
15:37 7.6 °C 5.2 °C 1009 hPa South 9.7 km/h 14.5 km/h 85 % 0 mm 60 W/m2
15:42 7.6 °C 5.2 °C 1009 hPa South 9.7 km/h 19.3 km/h 85 % 0 mm 77 W/m2
15:47 7.7 °C 5.5 °C 1009 hPa SSW 19.3 km/h 30.6 km/h 86 % 0 mm 105 W/m2
15:52 7.7 °C 5.5 °C 1009 hPa SSW 22.5 km/h 38.6 km/h 86 % 0 mm 88 W/m2
15:57 7.6 °C 5.4 °C 1008.7 hPa SSW 19.3 km/h 29 km/h 86 % 0 mm 74 W/m2
16:02 7.5 °C 5.5 °C 1008.7 hPa SSW 17.7 km/h 25.7 km/h 87 % 0 mm 62 W/m2
16:07 7.4 °C 5.4 °C 1008.7 hPa SW 17.7 km/h 32.2 km/h 87 % 0 mm 56 W/m2
16:12 7.4 °C 5.4 °C 1008.7 hPa SSW 17.7 km/h 35.4 km/h 87 % 0 mm 49 W/m2
16:17 7.3 °C 5.3 °C 1008.4 hPa SSW 17.7 km/h 33.8 km/h 87 % 0 mm 40 W/m2
16:22 7.3 °C 5.3 °C 1008.4 hPa SSW 17.7 km/h 29 km/h 87 % 0 mm 39 W/m2
16:27 7.2 °C 5.3 °C 1008.4 hPa SSW 20.9 km/h 32.2 km/h 88 % 0 mm 30 W/m2
16:32 7.1 °C 5.2 °C 1008.4 hPa SSW 17.7 km/h 30.6 km/h 88 % 0 mm 25 W/m2
16:37 7.1 °C 5.2 °C 1008.4 hPa SSW 17.7 km/h 25.7 km/h 88 % 0 mm 19 W/m2
16:42 7 °C 5.3 °C 1008 hPa SW 17.7 km/h 32.2 km/h 89 % 0 mm 14 W/m2
16:47 7 °C 5.3 °C 1008 hPa SSW 17.7 km/h 24.1 km/h 89 % 0 mm 12 W/m2
16:52 7 °C 5.3 °C 1007.7 hPa SSW 20.9 km/h 37 km/h 89 % 0 mm 9 W/m2
16:57 7 °C 5.3 °C 1007.7 hPa SW 19.3 km/h 30.6 km/h 89 % 0 mm 5 W/m2
17:02 7.1 °C 5.4 °C 1007.7 hPa SW 30.6 km/h 48.3 km/h 89 % 0 mm 0 W/m2
17:07 7.1 °C 5.4 °C 1007.7 hPa SW 25.7 km/h 38.6 km/h 89 % 0 mm 0 W/m2
17:12 7.1 °C 5.6 °C 1007.7 hPa SW 25.7 km/h 43.5 km/h 90 % 0 mm 0 W/m2
17:17 7 °C 5.4 °C 1007.7 hPa SW 25.7 km/h 35.4 km/h 90 % 0 mm 0 W/m2
17:22 7 °C 5.4 °C 1007.7 hPa SW 20.9 km/h 37 km/h 90 % 0 mm 0 W/m2
17:27 7 °C 5.4 °C 1007.3 hPa SW 25.7 km/h 38.6 km/h 90 % 0 mm 0 W/m2
17:32 7 °C 5.4 °C 1007.3 hPa SW 27.4 km/h 40.2 km/h 90 % 0 mm 0 W/m2
17:37 6.9 °C 5.6 °C 1007.3 hPa SW 25.7 km/h 40.2 km/h 91 % 0 mm 0 W/m2
17:42 6.9 °C 5.6 °C 1007.3 hPa SW 27.4 km/h 41.8 km/h 91 % 0 mm 0 W/m2
17:47 6.9 °C 5.6 °C 1007.3 hPa SW 30.6 km/h 43.5 km/h 91 % 0 mm 0 W/m2
17:52 6.9 °C 5.7 °C 1007.3 hPa SW 25.7 km/h 35.4 km/h 92 % 0 mm 0 W/m2
17:57 6.9 °C 5.7 °C 1007.3 hPa SW 29 km/h 45.1 km/h 92 % 0 mm 0 W/m2
18:02 6.8 °C 5.6 °C 1007 hPa SW 22.5 km/h 37 km/h 92 % 0 mm 0 W/m2
18:07 6.8 °C 5.6 °C 1007 hPa SSW 25.7 km/h 40.2 km/h 92 % 0 mm 0 W/m2
18:12 6.8 °C 5.6 °C 1007 hPa SW 24.1 km/h 33.8 km/h 92 % 0 mm 0 W/m2
18:17 6.8 °C 5.6 °C 1007 hPa SSW 30.6 km/h 48.3 km/h 92 % 0 mm 0 W/m2
18:22 6.8 °C 5.6 °C 1007 hPa SW 27.4 km/h 38.6 km/h 92 % 0 mm 0 W/m2
18:27 6.8 °C 5.6 °C 1007 hPa SSW 27.4 km/h 41.8 km/h 92 % 0 mm 0 W/m2
18:32 6.9 °C 5.7 °C 1007 hPa SSW 27.4 km/h 41.8 km/h 92 % 0 mm 0 W/m2
18:37 6.8 °C 5.6 °C 1007 hPa SW 27.4 km/h 41.8 km/h 92 % 0 mm 0 W/m2
18:42 6.9 °C 5.7 °C 1007 hPa SW 29 km/h 43.5 km/h 92 % 0 mm 0 W/m2
18:47 6.9 °C 5.7 °C 1006.7 hPa SSW 27.4 km/h 41.8 km/h 92 % 0 mm 0 W/m2
18:52 6.9 °C 5.7 °C 1006.7 hPa SW 19.3 km/h 33.8 km/h 92 % 0 mm 0 W/m2
18:53 6.9 °C 5.7 °C 1006.7 hPa SSW 19.3 km/h 33.8 km/h 92 % 0 mm 0 W/m2
18:58 6.9 °C 5.7 °C 1006.7 hPa SSW 24.1 km/h 45.1 km/h 92 % 0 mm 0 W/m2
19:03 6.9 °C 5.7 °C 1006.7 hPa SW 20.9 km/h 33.8 km/h 92 % 0 mm 0 W/m2
19:08 6.9 °C 5.7 °C 1006.7 hPa SSW 19.3 km/h 41.8 km/h 92 % 0 mm 0 W/m2
19:13 7 °C 5.8 °C 1006.7 hPa SSW 29 km/h 46.7 km/h 92 % 0 mm 0 W/m2
19:18 7.1 °C 5.7 °C 1006.3 hPa SSW 24.1 km/h 38.6 km/h 91 % 0 mm 0 W/m2
19:23 7.1 °C 5.7 °C 1006.3 hPa SW 22.5 km/h 38.6 km/h 91 % 0 mm 0 W/m2
19:28 7.1 °C 5.7 °C 1006.3 hPa SSW 22.5 km/h 37 km/h 91 % 0 mm 0 W/m2
19:33 7.1 °C 5.7 °C 1006.3 hPa SSW 20.9 km/h 32.2 km/h 91 % 0 mm 0 W/m2
19:38 7.1 °C 5.7 °C 1006.3 hPa SSW 24.1 km/h 45.1 km/h 91 % 0 mm 0 W/m2
19:43 6.9 °C 5.7 °C 1006.3 hPa SSW 20.9 km/h 30.6 km/h 92 % 0 mm 0 W/m2
19:48 6.9 °C 5.7 °C 1006.3 hPa SSW 16.1 km/h 24.1 km/h 92 % 0 mm 0 W/m2
19:53 6.8 °C 5.7 °C 1006.3 hPa SSW 22.5 km/h 40.2 km/h 93 % 0.25 mm 0 W/m2
19:58 6.8 °C 5.7 °C 1006.3 hPa SSW 22.5 km/h 35.4 km/h 93 % 0.25 mm 0 W/m2
20:03 6.8 °C 5.7 °C 1006.3 hPa SSW 16.1 km/h 25.7 km/h 93 % 0.51 mm 0 W/m2
20:08 6.8 °C 5.7 °C 1006 hPa SSW 20.9 km/h 38.6 km/h 93 % 0.76 mm 0 W/m2
20:13 6.8 °C 5.7 °C 1006 hPa SSW 19.3 km/h 33.8 km/h 93 % 1.02 mm 0 W/m2
20:18 6.8 °C 5.7 °C 1006 hPa SSW 20.9 km/h 32.2 km/h 93 % 1.27 mm 0 W/m2
20:23 6.8 °C 5.7 °C 1005.6 hPa SSW 17.7 km/h 30.6 km/h 93 % 1.52 mm 0 W/m2
20:28 6.8 °C 5.7 °C 1005.6 hPa South 20.9 km/h 35.4 km/h 93 % 1.78 mm 0 W/m2
20:33 6.8 °C 5.7 °C 1005.6 hPa SSW 19.3 km/h 25.7 km/h 93 % 2.29 mm 0 W/m2
20:38 6.8 °C 5.7 °C 1005.6 hPa South 19.3 km/h 37 km/h 93 % 2.29 mm 0 W/m2
20:44 6.8 °C 5.7 °C 1005.6 hPa SSW 17.7 km/h 29 km/h 93 % 2.29 mm 0 W/m2
20:49 6.8 °C 5.7 °C 1005.6 hPa SSW 20.9 km/h 33.8 km/h 93 % 2.29 mm 0 W/m2
20:54 6.8 °C 5.7 °C 1005.3 hPa SSW 14.5 km/h 20.9 km/h 93 % 2.29 mm 0 W/m2
20:59 6.8 °C 5.7 °C 1005.3 hPa SSW 19.3 km/h 32.2 km/h 93 % 2.29 mm 0 W/m2
21:04 6.8 °C 5.7 °C 1005.3 hPa SSW 17.7 km/h 24.1 km/h 93 % 2.03 mm 0 W/m2
21:09 6.8 °C 5.7 °C 1005 hPa SSW 17.7 km/h 24.1 km/h 93 % 1.78 mm 0 W/m2
21:14 6.8 °C 5.7 °C 1005.3 hPa SSW 16.1 km/h 29 km/h 93 % 1.78 mm 0 W/m2
21:19 6.8 °C 5.7 °C 1005.3 hPa SSW 16.1 km/h 30.6 km/h 93 % 1.52 mm 0 W/m2
21:24 6.9 °C 5.8 °C 1005 hPa SSW 17.7 km/h 30.6 km/h 93 % 1.27 mm 0 W/m2
21:29 6.9 °C 5.8 °C 1005 hPa SSW 17.7 km/h 35.4 km/h 93 % 1.02 mm 0 W/m2
21:34 6.9 °C 5.8 °C 1005.3 hPa SSW 20.9 km/h 35.4 km/h 93 % 0.76 mm 0 W/m2
21:39 6.9 °C 5.8 °C 1005 hPa SSW 17.7 km/h 33.8 km/h 93 % 1.02 mm 0 W/m2
21:44 6.9 °C 5.8 °C 1005 hPa SSW 16.1 km/h 29 km/h 93 % 0.76 mm 0 W/m2
21:49 7 °C 5.9 °C 1005 hPa SSW 17.7 km/h 29 km/h 93 % 1.02 mm 0 W/m2
21:54 7 °C 5.9 °C 1005 hPa SSW 16.1 km/h 22.5 km/h 93 % 0.76 mm 0 W/m2
21:59 6.9 °C 5.7 °C 1005 hPa SSW 12.9 km/h 19.3 km/h 92 % 0.76 mm 0 W/m2
22:04 6.9 °C 5.7 °C 1004.6 hPa SSW 16.1 km/h 24.1 km/h 92 % 1.02 mm 0 W/m2
22:09 6.9 °C 5.8 °C 1004.6 hPa SSW 17.7 km/h 24.1 km/h 93 % 1.02 mm 0 W/m2
22:14 6.9 °C 5.8 °C 1004.6 hPa SSW 16.1 km/h 29 km/h 93 % 0.76 mm 0 W/m2
22:19 6.9 °C 5.8 °C 1004.6 hPa SW 16.1 km/h 20.9 km/h 93 % 1.02 mm 0 W/m2
22:24 6.9 °C 5.8 °C 1004.6 hPa SSW 16.1 km/h 22.5 km/h 93 % 1.02 mm 0 W/m2
22:29 6.9 °C 5.8 °C 1004.6 hPa SSW 19.3 km/h 33.8 km/h 93 % 0.76 mm 0 W/m2
22:34 6.9 °C 5.8 °C 1004.3 hPa SSW 19.3 km/h 33.8 km/h 93 % 0.76 mm 0 W/m2
22:39 6.9 °C 5.8 °C 1004.3 hPa SSW 16.1 km/h 20.9 km/h 93 % 0.51 mm 0 W/m2
22:44 6.9 °C 5.8 °C 1004.3 hPa SSW 14.5 km/h 20.9 km/h 93 % 0.51 mm 0 W/m2
22:49 6.9 °C 5.8 °C 1004.3 hPa SSW 14.5 km/h 20.9 km/h 93 % 0.51 mm 0 W/m2
22:54 6.9 °C 5.8 °C 1004.3 hPa SSW 12.9 km/h 19.3 km/h 93 % 0.51 mm 0 W/m2
22:59 6.9 °C 5.8 °C 1004.3 hPa SSW 14.5 km/h 25.7 km/h 93 % 0.51 mm 0 W/m2
23:04 6.9 °C 5.8 °C 1004.3 hPa SW 14.5 km/h 24.1 km/h 93 % 0.25 mm 0 W/m2
23:09 6.9 °C 5.8 °C 1004.3 hPa SSW 16.1 km/h 22.5 km/h 93 % 0.25 mm 0 W/m2
23:14 6.9 °C 5.8 °C 1003.9 hPa SW 19.3 km/h 25.7 km/h 93 % 0.25 mm 0 W/m2
23:19 7 °C 5.9 °C 1003.9 hPa SW 16.1 km/h 20.9 km/h 93 % 0 mm 0 W/m2
23:24 7 °C 5.8 °C 1003.9 hPa SW 16.1 km/h 20.9 km/h 92 % 0 mm 0 W/m2
23:29 7 °C 5.8 °C 1003.9 hPa SW 14.5 km/h 19.3 km/h 92 % 0 mm 0 W/m2
23:35 7 °C 5.8 °C 1003.9 hPa SW 17.7 km/h 25.7 km/h 92 % 0 mm 0 W/m2
23:40 7 °C 5.8 °C 1003.9 hPa SW 19.3 km/h 29 km/h 92 % 0 mm 0 W/m2
23:45 7 °C 5.8 °C 1003.9 hPa SW 17.7 km/h 30.6 km/h 92 % 0 mm 0 W/m2
23:50 7 °C 5.8 °C 1003.6 hPa SW 17.7 km/h 29 km/h 92 % 0 mm 0 W/m2
23:55 7 °C 5.8 °C 1003.6 hPa SW 17.7 km/h 25.7 km/h 92 % 0 mm 0 W/m2
Delerius-Weather
Compliments of Weather Underground - 2.25 mb

Data updates at regular intervals.